sensor_id;sensor_type;location;lat;lon;timestamp;pressure;altitude;pressure_sealevel;temperature;humidity
36190;BME280;22232;50.914;13.858;2023-07-31T00:00:59;97579.00;;;15.66;100.00
36190;BME280;22232;50.914;13.858;2023-07-31T00:03:27;97580.88;;;15.66;100.00
36190;BME280;22232;50.914;13.858;2023-07-31T00:05:55;97576.59;;;15.70;100.00
36190;BME280;22232;50.914;13.858;2023-07-31T00:08:23;97570.91;;;15.66;100.00
36190;BME280;22232;50.914;13.858;2023-07-31T00:10:53;97572.53;;;15.62;100.00
36190;BME280;22232;50.914;13.858;2023-07-31T00:13:21;97570.38;;;15.64;100.00
36190;BME280;22232;50.914;13.858;2023-07-31T00:15:49;97571.44;;;15.58;100.00
36190;BME280;22232;50.914;13.858;2023-07-31T00:18:16;97569.31;;;15.50;100.00
36190;BME280;22232;50.914;13.858;2023-07-31T00:20:44;97568.25;;;15.56;100.00
36190;BME280;22232;50.914;13.858;2023-07-31T00:23:12;97575.22;;;15.47;100.00
36190;BME280;22232;50.914;13.858;2023-07-31T00:25:39;97572.25;;;15.38;100.00
36190;BME280;22232;50.914;13.858;2023-07-31T00:28:07;97566.06;;;15.32;100.00
36190;BME280;22232;50.914;13.858;2023-07-31T00:30:35;97559.91;;;15.32;100.00
36190;BME280;22232;50.914;13.858;2023-07-31T00:33:03;97561.25;;;15.34;100.00
36190;BME280;22232;50.914;13.858;2023-07-31T00:35:30;97563.66;;;15.36;100.00
36190;BME280;22232;50.914;13.858;2023-07-31T00:37:58;97562.56;;;15.32;100.00
36190;BME280;22232;50.914;13.858;2023-07-31T00:40:26;97562.03;;;15.35;100.00
36190;BME280;22232;50.914;13.858;2023-07-31T00:42:54;97557.22;;;15.37;100.00
36190;BME280;22232;50.914;13.858;2023-07-31T00:45:23;97555.84;;;15.40;100.00
36190;BME280;22232;50.914;13.858;2023-07-31T00:47:52;97546.44;;;15.42;100.00
36190;BME280;22232;50.914;13.858;2023-07-31T00:50:20;97538.13;;;15.49;100.00
36190;BME280;22232;50.914;13.858;2023-07-31T00:52:47;97541.63;;;15.59;100.00
36190;BME280;22232;50.914;13.858;2023-07-31T00:55:17;97540.28;;;15.67;100.00
36190;BME280;22232;50.914;13.858;2023-07-31T00:57:46;97544.31;;;15.70;100.00
36190;BME280;22232;50.914;13.858;2023-07-31T01:00:14;97536.00;;;15.71;100.00
36190;BME280;22232;50.914;13.858;2023-07-31T01:02:42;97540.56;;;15.76;100.00
36190;BME280;22232;50.914;13.858;2023-07-31T01:05:11;97532.25;;;15.82;100.00
36190;BME280;22232;50.914;13.858;2023-07-31T01:07:52;97534.63;;;15.94;100.00
36190;BME280;22232;50.914;13.858;2023-07-31T01:10:26;97534.63;;;15.94;100.00
36190;BME280;22232;50.914;13.858;2023-07-31T01:12:58;97524.69;;;15.95;100.00
36190;BME280;22232;50.914;13.858;2023-07-31T01:15:27;97524.69;;;15.95;100.00
36190;BME280;22232;50.914;13.858;2023-07-31T01:17:55;97520.38;;;15.99;99.63
36190;BME280;22232;50.914;13.858;2023-07-31T01:20:26;97520.13;;;15.95;99.67
36190;BME280;22232;50.914;13.858;2023-07-31T01:26:03;97519.84;;;15.92;100.00
36190;BME280;22232;50.914;13.858;2023-07-31T01:28:43;97515.03;;;15.89;100.00
36190;BME280;22232;50.914;13.858;2023-07-31T01:31:18;97512.88;;;15.80;100.00
36190;BME280;22232;50.914;13.858;2023-07-31T01:33:48;97513.69;;;15.81;100.00
36190;BME280;22232;50.914;13.858;2023-07-31T01:36:17;97511.28;;;15.79;100.00
36190;BME280;22232;50.914;13.858;2023-07-31T01:38:44;97507.75;;;15.84;100.00
36190;BME280;22232;50.914;13.858;2023-07-31T01:41:12;97510.44;;;15.84;100.00
36190;BME280;22232;50.914;13.858;2023-07-31T01:43:41;97510.72;;;15.82;99.98
36190;BME280;22232;50.914;13.858;2023-07-31T01:46:08;97510.44;;;15.89;100.00
36190;BME280;22232;50.914;13.858;2023-07-31T01:48:36;97510.44;;;15.84;99.66
36190;BME280;22232;50.914;13.858;2023-07-31T01:51:05;97514.47;;;15.81;100.00
36190;BME280;22232;50.914;13.858;2023-07-31T01:53:33;97509.63;;;15.78;100.00
36190;BME280;22232;50.914;13.858;2023-07-31T01:56:00;97513.97;;;15.74;100.00
36190;BME280;22232;50.914;13.858;2023-07-31T01:58:30;97504.53;;;15.82;100.00
36190;BME280;22232;50.914;13.858;2023-07-31T02:00:58;97500.22;;;15.86;100.00
36190;BME280;22232;50.914;13.858;2023-07-31T02:03:26;97505.59;;;15.86;98.91
36190;BME280;22232;50.914;13.858;2023-07-31T02:05:54;97499.69;;;15.79;99.93
36190;BME280;22232;50.914;13.858;2023-07-31T02:08:25;97491.31;;;15.91;100.00
36190;BME280;22232;50.914;13.858;2023-07-31T02:10:53;97486.50;;;15.88;99.38
36190;BME280;22232;50.914;13.858;2023-07-31T02:13:21;97487.84;;;15.90;99.07
36190;BME280;22232;50.914;13.858;2023-07-31T02:15:49;97487.53;;;15.97;98.50
36190;BME280;22232;50.914;13.858;2023-07-31T02:18:18;97482.44;;;15.95;97.69
36190;BME280;22232;50.914;13.858;2023-07-31T02:20:52;97495.91;;;15.95;98.83
36190;BME280;22232;50.914;13.858;2023-07-31T02:23:19;97494.56;;;15.93;99.68
36190;BME280;22232;50.914;13.858;2023-07-31T02:25:47;97496.72;;;15.91;100.00
36190;BME280;22232;50.914;13.858;2023-07-31T02:28:15;97494.56;;;15.93;100.00
36190;BME280;22232;50.914;13.858;2023-07-31T02:30:46;97494.56;;;15.93;99.62
36190;BME280;22232;50.914;13.858;2023-07-31T02:33:14;97490.53;;;15.95;99.37
36190;BME280;22232;50.914;13.858;2023-07-31T02:35:43;97492.63;;;16.03;97.41
36190;BME280;22232;50.914;13.858;2023-07-31T02:38:10;97490.50;;;16.00;97.97
36190;BME280;22232;50.914;13.858;2023-07-31T02:40:41;97489.13;;;16.08;96.62
36190;BME280;22232;50.914;13.858;2023-07-31T02:43:09;97492.13;;;16.01;97.52
36190;BME280;22232;50.914;13.858;2023-07-31T02:45:37;97492.38;;;16.00;98.33
36190;BME280;22232;50.914;13.858;2023-07-31T02:48:05;97483.50;;;15.99;98.21
36190;BME280;22232;50.914;13.858;2023-07-31T02:50:32;97479.97;;;16.09;96.27
36190;BME280;22232;50.914;13.858;2023-07-31T02:53:00;97481.88;;;16.14;95.21
36190;BME280;22232;50.914;13.858;2023-07-31T02:55:28;97479.97;;;16.09;96.62
36190;BME280;22232;50.914;13.858;2023-07-31T02:57:56;97486.94;;;16.15;95.46
36190;BME280;22232;50.914;13.858;2023-07-31T03:00:23;97477.81;;;16.16;96.18
36190;BME280;22232;50.914;13.858;2023-07-31T03:02:51;97474.59;;;16.09;96.88
36190;BME280;22232;50.914;13.858;2023-07-31T03:05:19;97472.72;;;16.10;95.47
36190;BME280;22232;50.914;13.858;2023-07-31T03:07:47;97475.13;;;16.11;97.13
36190;BME280;22232;50.914;13.858;2023-07-31T03:10:15;97476.50;;;16.09;97.73
36190;BME280;22232;50.914;13.858;2023-07-31T03:12:46;97475.44;;;16.04;98.10
36190;BME280;22232;50.914;13.858;2023-07-31T03:15:14;97464.97;;;15.98;98.68
36190;BME280;22232;50.914;13.858;2023-07-31T03:17:42;97465.22;;;16.01;98.70
36190;BME280;22232;50.914;13.858;2023-07-31T03:20:10;97474.59;;;16.09;99.36
36190;BME280;22232;50.914;13.858;2023-07-31T03:22:38;97471.66;;;16.11;97.76
36190;BME280;22232;50.914;13.858;2023-07-31T03:25:06;97467.31;;;16.10;99.30
36190;BME280;22232;50.914;13.858;2023-07-31T03:27:34;97472.72;;;16.10;99.67
36190;BME280;22232;50.914;13.858;2023-07-31T03:30:03;97462.50;;;16.12;99.25
36190;BME280;22232;50.914;13.858;2023-07-31T03:32:30;97465.72;;;16.14;100.00
36190;BME280;22232;50.914;13.858;2023-07-31T03:34:58;97464.94;;;16.08;100.00
36190;BME280;22232;50.914;13.858;2023-07-31T03:37:26;97468.16;;;16.05;100.00
36190;BME280;22232;50.914;13.858;2023-07-31T03:39:54;97470.84;;;16.05;100.00
36190;BME280;22232;50.914;13.858;2023-07-31T03:42:21;97470.06;;;16.04;100.00
36190;BME280;22232;50.914;13.858;2023-07-31T03:44:50;97472.72;;;16.10;100.00
36190;BME280;22232;50.914;13.858;2023-07-31T03:47:18;97474.34;;;16.05;100.00
36190;BME280;22232;50.914;13.858;2023-07-31T03:49:46;97484.56;;;16.03;100.00
36190;BME280;22232;50.914;13.858;2023-07-31T03:52:14;97491.28;;;16.06;100.00
36190;BME280;22232;50.914;13.858;2023-07-31T03:54:42;97491.03;;;15.97;100.00
36190;BME280;22232;50.914;13.858;2023-07-31T03:57:11;97485.94;;;15.91;100.00
36190;BME280;22232;50.914;13.858;2023-07-31T03:59:39;97498.09;;;15.78;100.00
36190;BME280;22232;50.914;13.858;2023-07-31T04:02:07;97494.59;;;15.57;100.00
36190;BME280;22232;50.914;13.858;2023-07-31T04:04:35;97487.06;;;15.38;100.00
36190;BME280;22232;50.914;13.858;2023-07-31T04:07:02;97487.34;;;15.27;100.00
36190;BME280;22232;50.914;13.858;2023-07-31T04:09:30;97491.09;;;15.36;100.00
36190;BME280;22232;50.914;13.858;2023-07-31T04:11:58;97485.44;;;15.43;100.00
36190;BME280;22232;50.914;13.858;2023-07-31T04:14:26;97494.88;;;15.35;100.00
36190;BME280;22232;50.914;13.858;2023-07-31T04:16:53;97478.22;;;15.28;100.00
36190;BME280;22232;50.914;13.858;2023-07-31T04:19:21;97476.31;;;15.23;100.00
36190;BME280;22232;50.914;13.858;2023-07-31T04:21:49;97477.66;;;15.26;100.00
36190;BME280;22232;50.914;13.858;2023-07-31T04:24:16;97475.78;;;15.11;100.00
36190;BME280;22232;50.914;13.858;2023-07-31T04:26:52;97456.19;;;15.10;100.00
36190;BME280;22232;50.914;13.858;2023-07-31T04:29:20;97459.41;;;15.07;100.00
36190;BME280;22232;50.914;13.858;2023-07-31T04:31:48;97465.56;;;15.03;100.00
36190;BME280;22232;50.914;13.858;2023-07-31T04:34:16;97455.63;;;15.08;100.00
36190;BME280;22232;50.914;13.858;2023-07-31T04:36:43;97453.47;;;15.05;100.00
36190;BME280;22232;50.914;13.858;2023-07-31T04:39:11;97452.41;;;15.11;100.00
36190;BME280;22232;50.914;13.858;2023-07-31T04:41:39;97448.13;;;15.10;100.00
36190;BME280;22232;50.914;13.858;2023-07-31T04:44:06;97445.44;;;15.16;100.00
36190;BME280;22232;50.914;13.858;2023-07-31T04:46:34;97438.47;;;15.09;100.00
36190;BME280;22232;50.914;13.858;2023-07-31T04:49:02;97433.88;;;15.20;100.00
36190;BME280;22232;50.914;13.858;2023-07-31T04:51:30;97438.47;;;15.25;100.00
36190;BME280;22232;50.914;13.858;2023-07-31T04:53:58;97429.56;;;15.29;100.00
36190;BME280;22232;50.914;13.858;2023-07-31T04:56:25;97433.06;;;15.30;100.00
36190;BME280;22232;50.914;13.858;2023-07-31T04:58:53;97424.47;;;15.28;100.00
36190;BME280;22232;50.914;13.858;2023-07-31T05:01:21;97425.78;;;15.30;100.00
36190;BME280;22232;50.914;13.858;2023-07-31T05:03:48;97429.03;;;15.37;100.00
36190;BME280;22232;50.914;13.858;2023-07-31T05:06:16;97428.22;;;15.37;100.00
36190;BME280;22232;50.914;13.858;2023-07-31T05:08:44;97433.84;;;15.30;100.00
36190;BME280;22232;50.914;13.858;2023-07-31T05:11:12;97426.34;;;15.37;100.00
36190;BME280;22232;50.914;13.858;2023-07-31T05:13:40;97427.16;;;15.38;100.00
36190;BME280;22232;50.914;13.858;2023-07-31T05:16:07;97420.41;;;15.46;100.00
36190;BME280;22232;50.914;13.858;2023-07-31T05:18:35;97422.84;;;15.47;100.00
36190;BME280;22232;50.914;13.858;2023-07-31T05:21:03;97416.91;;;15.50;100.00
36190;BME280;22232;50.914;13.858;2023-07-31T05:23:31;97420.16;;;15.47;100.00
36190;BME280;22232;50.914;13.858;2023-07-31T05:26:07;97411.53;;;15.55;100.00
36190;BME280;22232;50.914;13.858;2023-07-31T05:28:35;97415.53;;;15.63;100.00
36190;BME280;22232;50.914;13.858;2023-07-31T05:31:04;97415.28;;;15.70;100.00
36190;BME280;22232;50.914;13.858;2023-07-31T05:33:32;97407.22;;;15.75;100.00
36190;BME280;22232;50.914;13.858;2023-07-31T05:36:00;97420.91;;;15.78;100.00
36190;BME280;22232;50.914;13.858;2023-07-31T05:38:28;97416.03;;;15.91;100.00
36190;BME280;22232;50.914;13.858;2023-07-31T05:40:56;97412.78;;;15.99;100.00
36190;BME280;22232;50.914;13.858;2023-07-31T05:43:23;97421.91;;;16.03;100.00
36190;BME280;22232;50.914;13.858;2023-07-31T05:45:51;97420.00;;;16.03;100.00
36190;BME280;22232;50.914;13.858;2023-07-31T05:48:19;97414.91;;;16.07;100.00
36190;BME280;22232;50.914;13.858;2023-07-31T05:50:47;97419.69;;;16.15;100.00
36190;BME280;22232;50.914;13.858;2023-07-31T05:53:14;97410.03;;;16.09;100.00
36190;BME280;22232;50.914;13.858;2023-07-31T05:55:42;97407.31;;;16.19;100.00
36190;BME280;22232;50.914;13.858;2023-07-31T05:58:10;97406.47;;;16.24;100.00
36190;BME280;22232;50.914;13.858;2023-07-31T06:00:38;97407.03;;;16.21;100.00
36190;BME280;22232;50.914;13.858;2023-07-31T06:03:05;97406.47;;;16.19;100.00
36190;BME280;22232;50.914;13.858;2023-07-31T06:05:33;97398.47;;;16.14;100.00
36190;BME280;22232;50.914;13.858;2023-07-31T06:08:01;97401.88;;;16.24;100.00
36190;BME280;22232;50.914;13.858;2023-07-31T06:10:29;97401.88;;;16.24;100.00
36190;BME280;22232;50.914;13.858;2023-07-31T06:12:56;97410.75;;;16.25;100.00
36190;BME280;22232;50.914;13.858;2023-07-31T06:15:24;97404.81;;;16.28;100.00
36190;BME280;22232;50.914;13.858;2023-07-31T06:17:52;97400.81;;;16.25;100.00
36190;BME280;22232;50.914;13.858;2023-07-31T06:20:21;97396.47;;;16.35;100.00
36190;BME280;22232;50.914;13.858;2023-07-31T06:22:49;97396.97;;;16.42;100.00
36190;BME280;22232;50.914;13.858;2023-07-31T06:25:16;97394.25;;;16.42;100.00
36190;BME280;22232;50.914;13.858;2023-07-31T06:27:44;97401.47;;;16.51;100.00
36190;BME280;22232;50.914;13.858;2023-07-31T06:30:12;97399.22;;;16.64;100.00
36190;BME280;22232;50.914;13.858;2023-07-31T06:32:40;97406.50;;;16.68;100.00
36190;BME280;22232;50.914;13.858;2023-07-31T06:35:08;97401.91;;;16.69;100.00
36190;BME280;22232;50.914;13.858;2023-07-31T06:37:36;97400.03;;;16.64;100.00
36190;BME280;22232;50.914;13.858;2023-07-31T06:40:04;97407.25;;;16.74;100.00
36190;BME280;22232;50.914;13.858;2023-07-31T06:42:33;97410.22;;;16.78;100.00
36190;BME280;22232;50.914;13.858;2023-07-31T06:45:01;97414.53;;;16.79;100.00
36190;BME280;22232;50.914;13.858;2023-07-31T06:47:29;97403.25;;;16.71;100.00
36190;BME280;22232;50.914;13.858;2023-07-31T06:49:57;97398.41;;;16.68;100.00
36190;BME280;22232;50.914;13.858;2023-07-31T06:52:25;97392.50;;;16.61;100.00
36190;BME280;22232;50.914;13.858;2023-07-31T06:55:18;97396.53;;;16.64;100.00
36190;BME280;22232;50.914;13.858;2023-07-31T06:57:47;97397.41;;;16.59;100.00
36190;BME280;22232;50.914;13.858;2023-07-31T07:00:17;97398.44;;;16.63;100.00
36190;BME280;22232;50.914;13.858;2023-07-31T07:02:45;97405.69;;;16.68;100.00
36190;BME280;22232;50.914;13.858;2023-07-31T07:05:16;97398.91;;;16.70;100.00
36190;BME280;22232;50.914;13.858;2023-07-31T07:07:44;97398.13;;;16.70;100.00
36190;BME280;22232;50.914;13.858;2023-07-31T07:10:12;97407.00;;;16.76;100.00
36190;BME280;22232;50.914;13.858;2023-07-31T07:12:39;97400.00;;;16.69;100.00
36190;BME280;22232;50.914;13.858;2023-07-31T07:15:08;97398.09;;;16.75;100.00
36190;BME280;22232;50.914;13.858;2023-07-31T07:17:36;97403.19;;;16.82;100.00
36190;BME280;22232;50.914;13.858;2023-07-31T07:20:04;97398.34;;;16.84;100.00
36190;BME280;22232;50.914;13.858;2023-07-31T07:22:32;97400.13;;;16.93;100.00
36190;BME280;22232;50.914;13.858;2023-07-31T07:25:00;97403.56;;;17.04;100.00
36190;BME280;22232;50.914;13.858;2023-07-31T07:27:28;97406.16;;;17.14;100.00
36190;BME280;22232;50.914;13.858;2023-07-31T07:29:56;97396.03;;;17.30;100.00
36190;BME280;22232;50.914;13.858;2023-07-31T07:32:23;97390.88;;;17.34;100.00
36190;BME280;22232;50.914;13.858;2023-07-31T07:34:51;97390.28;;;17.42;100.00
36190;BME280;22232;50.914;13.858;2023-07-31T07:37:19;97391.84;;;17.48;100.00
36190;BME280;22232;50.914;13.858;2023-07-31T07:39:46;97399.88;;;17.53;100.00
36190;BME280;22232;50.914;13.858;2023-07-31T07:42:16;97400.59;;;17.59;100.00
36190;BME280;22232;50.914;13.858;2023-07-31T07:44:43;97401.53;;;17.73;100.00
36190;BME280;22232;50.914;13.858;2023-07-31T07:47:12;97395.88;;;17.75;100.00
36190;BME280;22232;50.914;13.858;2023-07-31T07:49:40;97389.94;;;17.78;100.00
36190;BME280;22232;50.914;13.858;2023-07-31T07:52:07;97388.84;;;17.79;100.00
36190;BME280;22232;50.914;13.858;2023-07-31T07:54:35;97394.66;;;17.86;100.00
36190;BME280;22232;50.914;13.858;2023-07-31T07:57:03;97397.31;;;17.91;100.00
36190;BME280;22232;50.914;13.858;2023-07-31T07:59:31;97392.28;;;17.84;100.00
36190;BME280;22232;50.914;13.858;2023-07-31T08:01:59;97396.53;;;17.91;100.00
36190;BME280;22232;50.914;13.858;2023-07-31T08:04:26;97391.78;;;18.01;100.00
36190;BME280;22232;50.914;13.858;2023-07-31T08:06:54;97395.41;;;18.16;100.00
36190;BME280;22232;50.914;13.858;2023-07-31T08:09:22;97394.03;;;18.18;100.00
36190;BME280;22232;50.914;13.858;2023-07-31T08:11:50;97387.16;;;18.26;100.00
36190;BME280;22232;50.914;13.858;2023-07-31T08:14:17;97389.53;;;18.32;100.00
36190;BME280;22232;50.914;13.858;2023-07-31T08:16:45;97398.94;;;18.54;100.00
36190;BME280;22232;50.914;13.858;2023-07-31T08:19:13;97395.22;;;18.69;100.00
36190;BME280;22232;50.914;13.858;2023-07-31T08:21:41;97395.28;;;18.83;100.00
36190;BME280;22232;50.914;13.858;2023-07-31T08:24:08;97399.59;;;19.02;100.00
36190;BME280;22232;50.914;13.858;2023-07-31T08:26:36;97401.56;;;19.30;100.00
36190;BME280;22232;50.914;13.858;2023-07-31T08:29:04;97394.69;;;19.51;100.00
36190;BME280;22232;50.914;13.858;2023-07-31T08:31:32;97402.88;;;19.79;99.08
36190;BME280;22232;50.914;13.858;2023-07-31T08:34:00;97397.03;;;19.85;98.39
36190;BME280;22232;50.914;13.858;2023-07-31T08:36:28;97405.47;;;19.98;97.37
36190;BME280;22232;50.914;13.858;2023-07-31T08:38:57;97399.75;;;20.13;97.22
36190;BME280;22232;50.914;13.858;2023-07-31T08:41:24;97403.16;;;20.05;94.94
36190;BME280;22232;50.914;13.858;2023-07-31T08:43:53;97394.50;;;20.16;95.37
36190;BME280;22232;50.914;13.858;2023-07-31T08:46:22;97405.56;;;20.06;95.01
36190;BME280;22232;50.914;13.858;2023-07-31T08:48:51;97398.75;;;20.09;96.02
36190;BME280;22232;50.914;13.858;2023-07-31T08:51:20;97403.75;;;20.02;95.49
36190;BME280;22232;50.914;13.858;2023-07-31T08:53:47;97405.16;;;19.85;96.94
36190;BME280;22232;50.914;13.858;2023-07-31T08:56:15;97407.75;;;19.77;97.36
36190;BME280;22232;50.914;13.858;2023-07-31T08:58:46;97406.19;;;19.57;99.08
36190;BME280;22232;50.914;13.858;2023-07-31T09:01:14;97409.41;;;19.45;99.66
36190;BME280;22232;50.914;13.858;2023-07-31T09:03:43;97397.47;;;19.46;100.00
36190;BME280;22232;50.914;13.858;2023-07-31T09:06:12;97400.47;;;19.44;100.00
36190;BME280;22232;50.914;13.858;2023-07-31T09:08:41;97404.09;;;19.54;100.00
36190;BME280;22232;50.914;13.858;2023-07-31T09:11:10;97407.78;;;19.44;100.00
36190;BME280;22232;50.914;13.858;2023-07-31T09:13:39;97411.53;;;19.48;100.00
36190;BME280;22232;50.914;13.858;2023-07-31T09:16:08;97414.63;;;19.55;100.00
36190;BME280;22232;50.914;13.858;2023-07-31T09:18:53;97417.25;;;19.60;99.98
36190;BME280;22232;50.914;13.858;2023-07-31T09:21:23;97417.72;;;19.62;97.52
36190;BME280;22232;50.914;13.858;2023-07-31T09:23:51;97414.50;;;19.46;99.65
36190;BME280;22232;50.914;13.858;2023-07-31T09:26:37;97392.47;;;19.39;99.75
36190;BME280;22232;50.914;13.858;2023-07-31T09:29:06;97413.66;;;19.32;98.54
36190;BME280;22232;50.914;13.858;2023-07-31T09:31:40;97402.25;;;19.35;100.00
36190;BME280;22232;50.914;13.858;2023-07-31T09:34:09;97400.84;;;19.24;100.00
36190;BME280;22232;50.914;13.858;2023-07-31T09:36:47;97399.53;;;19.21;99.58
36190;BME280;22232;50.914;13.858;2023-07-31T09:39:16;97388.81;;;19.16;100.00
36190;BME280;22232;50.914;13.858;2023-07-31T09:41:47;97390.03;;;19.24;100.00
36190;BME280;22232;50.914;13.858;2023-07-31T09:44:20;97396.84;;;19.35;100.00
36190;BME280;22232;50.914;13.858;2023-07-31T09:46:48;97384.75;;;19.46;100.00
36190;BME280;22232;50.914;13.858;2023-07-31T09:49:17;97374.44;;;19.62;97.26
36190;BME280;22232;50.914;13.858;2023-07-31T09:51:44;97382.28;;;19.78;94.75
36190;BME280;22232;50.914;13.858;2023-07-31T09:54:13;97381.09;;;19.84;96.80
36190;BME280;22232;50.914;13.858;2023-07-31T09:56:46;97386.72;;;19.74;94.99
36190;BME280;22232;50.914;13.858;2023-07-31T09:59:16;97382.28;;;19.78;95.50
36190;BME280;22232;50.914;13.858;2023-07-31T10:01:47;97385.31;;;19.76;96.14
36190;BME280;22232;50.914;13.858;2023-07-31T10:04:17;97382.63;;;19.76;95.55
36190;BME280;22232;50.914;13.858;2023-07-31T10:06:49;97384.09;;;19.68;95.70
36190;BME280;22232;50.914;13.858;2023-07-31T10:09:18;97390.13;;;19.79;93.87
36190;BME280;22232;50.914;13.858;2023-07-31T10:11:55;97381.03;;;19.75;95.70
36190;BME280;22232;50.914;13.858;2023-07-31T10:14:26;97379.59;;;19.78;96.84
36190;BME280;22232;50.914;13.858;2023-07-31T10:16:57;97376.00;;;19.82;96.43
36190;BME280;22232;50.914;13.858;2023-07-31T10:19:26;97378.31;;;19.75;97.21
36190;BME280;22232;50.914;13.858;2023-07-31T10:21:55;97382.91;;;19.75;98.84
36190;BME280;22232;50.914;13.858;2023-07-31T10:24:24;97377.59;;;19.83;94.65
36190;BME280;22232;50.914;13.858;2023-07-31T10:26:53;97373.50;;;19.86;96.35
36190;BME280;22232;50.914;13.858;2023-07-31T10:29:23;97366.28;;;19.67;93.17
36190;BME280;22232;50.914;13.858;2023-07-31T10:31:52;97369.00;;;19.81;95.53
36190;BME280;22232;50.914;13.858;2023-07-31T10:34:20;97351.53;;;19.74;92.85
36190;BME280;22232;50.914;13.858;2023-07-31T10:36:47;97359.06;;;19.77;94.10
36190;BME280;22232;50.914;13.858;2023-07-31T10:39:37;97364.47;;;19.77;93.49
36190;BME280;22232;50.914;13.858;2023-07-31T10:42:12;97343.34;;;19.79;92.22
36190;BME280;22232;50.914;13.858;2023-07-31T10:44:46;97348.44;;;19.94;94.07
36190;BME280;22232;50.914;13.858;2023-07-31T10:47:17;97343.72;;;20.00;92.58
36190;BME280;22232;50.914;13.858;2023-07-31T10:49:46;97341.66;;;20.19;92.86
36190;BME280;22232;50.914;13.858;2023-07-31T10:52:19;97359.38;;;20.39;92.76
36190;BME280;22232;50.914;13.858;2023-07-31T10:57:47;97347.34;;;20.90;87.86
36190;BME280;22232;50.914;13.858;2023-07-31T11:00:26;97349.88;;;21.09;88.47
36190;BME280;22232;50.914;13.858;2023-07-31T11:03:12;97344.81;;;21.16;84.49
36190;BME280;22232;50.914;13.858;2023-07-31T11:06:00;97340.91;;;21.31;86.79
36190;BME280;22232;50.914;13.858;2023-07-31T11:08:35;97319.09;;;21.36;85.36
36190;BME280;22232;50.914;13.858;2023-07-31T11:11:10;97325.53;;;21.49;81.17
36190;BME280;22232;50.914;13.858;2023-07-31T11:13:49;97332.09;;;21.57;83.23
36190;BME280;22232;50.914;13.858;2023-07-31T11:16:18;97321.25;;;21.57;84.33
36190;BME280;22232;50.914;13.858;2023-07-31T11:18:47;97315.53;;;21.58;82.65
36190;BME280;22232;50.914;13.858;2023-07-31T11:21:18;97325.78;;;21.70;81.15
36190;BME280;22232;50.914;13.858;2023-07-31T11:23:50;97314.78;;;21.84;85.40
36190;BME280;22232;50.914;13.858;2023-07-31T11:26:19;97315.31;;;21.94;83.13
36190;BME280;22232;50.914;13.858;2023-07-31T11:28:48;97314.19;;;22.04;80.81
36190;BME280;22232;50.914;13.858;2023-07-31T11:31:17;97316.06;;;21.86;78.76
36190;BME280;22232;50.914;13.858;2023-07-31T11:33:46;97316.34;;;21.67;78.72
36190;BME280;22232;50.914;13.858;2023-07-31T11:36:15;97311.47;;;21.47;87.64
36190;BME280;22232;50.914;13.858;2023-07-31T11:38:44;97310.53;;;21.20;98.01
36190;BME280;22232;50.914;13.858;2023-07-31T11:41:14;97315.59;;;21.13;100.00
36190;BME280;22232;50.914;13.858;2023-07-31T11:43:46;97320.28;;;21.21;97.07
36190;BME280;22232;50.914;13.858;2023-07-31T11:46:14;97319.22;;;21.31;97.26
36190;BME280;22232;50.914;13.858;2023-07-31T11:48:43;97314.47;;;21.37;92.49
36190;BME280;22232;50.914;13.858;2023-07-31T11:51:12;97317.09;;;21.59;88.42
36190;BME280;22232;50.914;13.858;2023-07-31T11:53:47;97304.41;;;21.86;88.33
36190;BME280;22232;50.914;13.858;2023-07-31T11:56:19;97300.44;;;22.01;85.40
36190;BME280;22232;50.914;13.858;2023-07-31T11:58:58;97294.69;;;22.02;81.97
36190;BME280;22232;50.914;13.858;2023-07-31T12:01:27;97299.53;;;22.23;83.73
36190;BME280;22232;50.914;13.858;2023-07-31T12:03:56;97289.63;;;22.44;85.56
36190;BME280;22232;50.914;13.858;2023-07-31T12:06:37;97286.56;;;22.63;79.95
36190;BME280;22232;50.914;13.858;2023-07-31T12:09:05;97283.34;;;22.96;78.57
36190;BME280;22232;50.914;13.858;2023-07-31T12:11:46;97282.56;;;23.33;77.79
36190;BME280;22232;50.914;13.858;2023-07-31T12:14:22;97292.38;;;23.26;72.71
36190;BME280;22232;50.914;13.858;2023-07-31T12:16:59;97286.19;;;23.17;76.33
36190;BME280;22232;50.914;13.858;2023-07-31T12:19:27;97293.72;;;22.85;78.27
36190;BME280;22232;50.914;13.858;2023-07-31T12:22:02;97285.94;;;22.66;74.82
36190;BME280;22232;50.914;13.858;2023-07-31T12:24:30;97283.06;;;22.62;77.73
36190;BME280;22232;50.914;13.858;2023-07-31T12:26:57;97289.00;;;22.64;77.34
36190;BME280;22232;50.914;13.858;2023-07-31T12:29:34;97286.91;;;22.61;75.84
36190;BME280;22232;50.914;13.858;2023-07-31T12:32:24;97283.06;;;22.45;72.87
36190;BME280;22232;50.914;13.858;2023-07-31T12:34:59;97272.03;;;22.50;74.56
36190;BME280;22232;50.914;13.858;2023-07-31T12:37:29;97271.09;;;22.46;73.95
36190;BME280;22232;50.914;13.858;2023-07-31T12:39:56;97265.63;;;22.55;75.52
36190;BME280;22232;50.914;13.858;2023-07-31T12:42:30;97260.19;;;22.63;74.58
36190;BME280;22232;50.914;13.858;2023-07-31T12:44:58;97248.22;;;22.64;71.70
36190;BME280;22232;50.914;13.858;2023-07-31T12:47:26;97258.88;;;22.96;70.79
36190;BME280;22232;50.914;13.858;2023-07-31T12:49:54;97255.00;;;23.05;70.29
36190;BME280;22232;50.914;13.858;2023-07-31T12:55:33;97240.44;;;23.10;67.07
36190;BME280;22232;50.914;13.858;2023-07-31T12:58:02;97240.03;;;23.29;67.78
36190;BME280;22232;50.914;13.858;2023-07-31T13:00:30;97234.81;;;23.45;64.38
36190;BME280;22232;50.914;13.858;2023-07-31T13:02:59;97229.25;;;23.92;65.68
36190;BME280;22232;50.914;13.858;2023-07-31T13:05:28;97212.91;;;24.13;63.21